createdAt,value
2018-06-27T00:00:13.429Z,12.20
2018-06-27T00:02:41.966Z,10.77
2018-06-27T00:05:10.336Z,11.73
2018-06-27T00:07:38.817Z,12.30
2018-06-27T00:10:07.280Z,11.87
2018-06-27T00:12:35.798Z,11.87
2018-06-27T00:15:04.493Z,13.23
2018-06-27T00:17:32.957Z,13.83
2018-06-27T00:20:01.534Z,14.50
2018-06-27T00:22:30.042Z,13.20
2018-06-27T00:24:58.381Z,14.10
2018-06-27T00:27:26.800Z,13.93
2018-06-27T00:29:55.182Z,13.33
2018-06-27T00:32:23.694Z,12.73
2018-06-27T00:34:52.250Z,11.37
2018-06-27T00:37:20.592Z,12.43
2018-06-27T00:39:49.183Z,11.00
2018-06-27T00:42:17.772Z,11.77
2018-06-27T00:44:46.251Z,10.27
2018-06-27T00:47:14.733Z,11.23
2018-06-27T00:49:43.109Z,11.30
2018-06-27T00:52:11.451Z,12.60
2018-06-27T00:54:39.978Z,12.97
2018-06-27T00:57:08.444Z,12.30
2018-06-27T00:59:36.873Z,11.43
2018-06-27T01:02:05.201Z,11.90
2018-06-27T01:04:33.685Z,11.83
2018-06-27T01:07:02.149Z,11.57
2018-06-27T01:09:30.752Z,10.23
2018-06-27T01:11:59.118Z,10.90
2018-06-27T01:14:27.514Z,10.63
2018-06-27T01:16:55.994Z,11.07
2018-06-27T01:19:24.338Z,10.60
2018-06-27T01:21:52.743Z,10.17
2018-06-27T01:24:21.362Z,11.17
2018-06-27T01:26:49.817Z,11.67
2018-06-27T01:29:18.097Z,10.03
2018-06-27T01:31:46.497Z,9.90
2018-06-27T01:34:15.054Z,9.83
2018-06-27T01:36:43.437Z,9.30
2018-06-27T01:39:11.813Z,8.73
2018-06-27T01:41:40.116Z,8.27
2018-06-27T01:44:08.469Z,9.10
2018-06-27T01:46:36.953Z,7.70
2018-06-27T01:49:05.424Z,7.47
2018-06-27T01:51:33.711Z,8.43
2018-06-27T01:54:02.302Z,7.80
2018-06-27T01:56:30.771Z,7.43
2018-06-27T01:58:59.155Z,8.23
2018-06-27T02:01:27.533Z,8.23
2018-06-27T02:03:55.917Z,9.13
2018-06-27T02:06:24.392Z,9.43
2018-06-27T02:08:52.670Z,8.57
2018-06-27T02:11:21.040Z,8.33
2018-06-27T02:13:49.429Z,8.57
2018-06-27T02:16:17.908Z,8.37
2018-06-27T02:18:46.293Z,8.87
2018-06-27T02:21:14.805Z,7.87
2018-06-27T02:23:43.136Z,7.87
2018-06-27T02:26:11.632Z,7.23
2018-06-27T02:28:39.902Z,8.40
2018-06-27T02:31:08.285Z,8.50
2018-06-27T02:33:36.826Z,8.50
2018-06-27T02:36:05.235Z,9.70
2018-06-27T02:38:33.621Z,10.07
2018-06-27T02:41:01.874Z,9.13
2018-06-27T02:43:32.878Z,9.13
2018-06-27T02:46:01.329Z,10.83
2018-06-27T02:48:29.793Z,9.03
2018-06-27T02:50:57.973Z,8.97
2018-06-27T02:53:26.549Z,8.20
2018-06-27T02:55:54.738Z,8.27
2018-06-27T02:58:22.846Z,8.70
2018-06-27T03:00:51.190Z,8.10
2018-06-27T03:03:19.674Z,10.10
2018-06-27T03:05:47.946Z,8.77
2018-06-27T03:08:16.225Z,8.97
2018-06-27T03:10:44.502Z,8.17
2018-06-27T03:13:12.872Z,8.67
2018-06-27T03:15:41.041Z,7.80
2018-06-27T03:18:09.356Z,8.07
2018-06-27T03:20:37.907Z,8.40
2018-06-27T03:23:06.284Z,8.10
2018-06-27T03:25:34.770Z,9.50
2018-06-27T03:28:03.142Z,9.47
2018-06-27T03:30:31.318Z,8.50
2018-06-27T03:32:59.913Z,9.80
2018-06-27T03:35:28.072Z,10.93
2018-06-27T03:37:56.454Z,10.10
2018-06-27T03:40:25.049Z,10.03
2018-06-27T03:42:53.361Z,8.60
2018-06-27T03:45:21.917Z,8.40
2018-06-27T03:47:50.085Z,9.30
2018-06-27T03:50:18.564Z,9.63
2018-06-27T03:52:48.154Z,10.97
2018-06-27T03:55:16.553Z,10.00
2018-06-27T03:57:45.294Z,10.43
2018-06-27T04:00:13.726Z,10.53
2018-06-27T04:02:42.336Z,9.90
2018-06-27T04:05:10.697Z,10.63
2018-06-27T04:07:39.066Z,12.30
2018-06-27T04:10:08.653Z,13.50
2018-06-27T04:12:37.208Z,15.90
2018-06-27T04:15:05.564Z,19.63
2018-06-27T04:17:33.965Z,17.20
2018-06-27T04:20:02.352Z,16.03
2018-06-27T04:22:34.557Z,15.40
2018-06-27T04:25:02.845Z,15.67
2018-06-27T04:27:31.860Z,13.37
2018-06-27T04:30:01.722Z,12.87
2018-06-27T04:32:30.221Z,12.07
2018-06-27T04:34:59.493Z,13.60
2018-06-27T04:37:27.816Z,13.63
2018-06-27T04:39:56.174Z,14.27
2018-06-27T04:42:24.573Z,15.27
2018-06-27T04:44:53.130Z,14.80
2018-06-27T04:47:21.409Z,16.00
2018-06-27T04:49:49.874Z,16.13
2018-06-27T04:52:18.417Z,15.80
2018-06-27T04:54:46.799Z,15.40
2018-06-27T04:57:15.262Z,16.27
2018-06-27T04:59:43.550Z,15.63
2018-06-27T05:02:11.802Z,17.93
2018-06-27T05:04:39.961Z,18.23
2018-06-27T05:07:08.405Z,17.53
2018-06-27T05:09:36.721Z,17.43
2018-06-27T05:12:05.012Z,17.97
2018-06-27T05:14:33.649Z,17.83
2018-06-27T05:17:01.868Z,18.57
2018-06-27T05:19:30.237Z,18.43
2018-06-27T05:21:58.846Z,17.20
2018-06-27T05:24:27.110Z,19.83
2018-06-27T05:26:55.633Z,20.07
2018-06-27T05:29:23.964Z,21.50
2018-06-27T05:31:52.341Z,18.97
2018-06-27T05:34:20.670Z,16.67
2018-06-27T05:36:49.095Z,16.20
2018-06-27T05:39:18.186Z,13.37
2018-06-27T05:41:47.032Z,13.07
2018-06-27T05:44:16.048Z,14.30
2018-06-27T05:46:45.524Z,12.67
2018-06-27T05:49:14.545Z,12.37
2018-06-27T05:51:43.079Z,13.57
2018-06-27T05:54:11.561Z,11.67
2018-06-27T05:56:40.131Z,13.73
2018-06-27T05:59:08.598Z,12.83
2018-06-27T06:01:37.036Z,12.77
2018-06-27T06:04:05.561Z,9.90
2018-06-27T06:06:34.263Z,8.90
2018-06-27T06:09:02.914Z,7.77
2018-06-27T06:11:31.374Z,7.87
2018-06-27T06:14:00.007Z,8.03
2018-06-27T06:16:28.444Z,7.33
2018-06-27T06:18:56.777Z,7.30
2018-06-27T06:21:25.134Z,6.63
2018-06-27T06:23:53.372Z,7.90
2018-06-27T06:26:21.705Z,7.73
2018-06-27T06:28:49.973Z,6.37
2018-06-27T06:31:18.401Z,6.50
2018-06-27T06:33:46.844Z,6.73
2018-06-27T06:36:15.313Z,6.30
2018-06-27T06:38:43.800Z,6.90
2018-06-27T06:41:12.073Z,7.27
2018-06-27T06:43:40.498Z,7.10
2018-06-27T06:46:08.897Z,7.37
2018-06-27T06:48:37.318Z,6.97
2018-06-27T06:51:05.835Z,6.73
2018-06-27T06:53:34.254Z,7.33
2018-06-27T06:56:02.802Z,8.63
2018-06-27T06:58:31.481Z,9.13
2018-06-27T07:00:59.716Z,8.93
2018-06-27T07:03:28.097Z,9.00
2018-06-27T07:05:56.312Z,9.20
2018-06-27T07:08:24.766Z,10.23
2018-06-27T07:10:53.043Z,11.17
2018-06-27T07:13:21.345Z,11.97
2018-06-27T07:15:49.580Z,12.53
2018-06-27T07:18:17.764Z,13.43
2018-06-27T07:20:45.982Z,17.00
2018-06-27T07:23:14.227Z,18.27
2018-06-27T07:25:42.816Z,16.63
2018-06-27T07:28:11.330Z,21.97
2018-06-27T07:30:46.418Z,23.00
2018-06-27T07:33:14.629Z,24.57
2018-06-27T07:35:43.137Z,25.47
2018-06-27T07:38:12.485Z,24.23
2018-06-27T07:40:41.105Z,23.70
2018-06-27T07:43:09.550Z,31.40
2018-06-27T07:45:38.026Z,33.03
2018-06-27T08:13:49.957Z,37.60
2018-06-27T08:49:05.274Z,39.37
2018-06-27T09:33:36.034Z,29.90
2018-06-27T09:36:04.637Z,34.53
2018-06-27T09:38:32.884Z,36.50
2018-06-27T09:41:01.156Z,37.13
2018-06-27T09:43:29.689Z,37.73
2018-06-27T09:45:58.250Z,36.60
2018-06-27T09:48:26.528Z,34.30
2018-06-27T09:50:55.112Z,31.83
2018-06-27T09:53:23.673Z,34.70
2018-06-27T09:55:51.932Z,33.47
2018-06-27T09:58:20.120Z,31.97
2018-06-27T10:00:48.646Z,33.87
2018-06-27T10:03:17.137Z,32.50
2018-06-27T10:05:45.665Z,31.67
2018-06-27T10:08:14.250Z,28.07
2018-06-27T10:10:42.630Z,23.73
2018-06-27T10:13:11.136Z,30.43
2018-06-27T10:15:39.560Z,26.97
2018-06-27T10:18:07.966Z,27.30
2018-06-27T10:20:36.172Z,25.63
2018-06-27T10:23:04.630Z,29.13
2018-06-27T10:25:32.947Z,30.80
2018-06-27T10:28:01.268Z,32.60
2018-06-27T10:30:29.758Z,30.03
2018-06-27T10:32:58.129Z,28.17
2018-06-27T10:35:26.425Z,29.80
2018-06-27T10:37:55.031Z,27.23
2018-06-27T10:40:23.542Z,26.07
2018-06-27T10:42:51.954Z,25.57
2018-06-27T10:45:20.482Z,27.50
2018-06-27T10:47:48.826Z,25.27
2018-06-27T10:50:17.106Z,27.73
2018-06-27T10:52:45.628Z,28.40
2018-06-27T10:55:18.782Z,28.23
2018-06-27T10:57:47.308Z,27.33
2018-06-27T11:00:15.957Z,26.30
2018-06-27T11:02:44.334Z,25.27
2018-06-27T11:05:12.860Z,22.27
2018-06-27T11:07:41.418Z,22.83
2018-06-27T11:10:09.886Z,22.00
2018-06-27T11:12:38.423Z,21.60
2018-06-27T11:15:07.543Z,22.37
2018-06-27T11:17:36.131Z,23.17
2018-06-27T11:20:04.748Z,20.57
2018-06-27T11:22:33.234Z,21.67
2018-06-27T11:25:02.066Z,20.73
2018-06-27T11:27:30.605Z,19.80
2018-06-27T11:29:59.041Z,20.90
2018-06-27T11:32:27.646Z,21.00
2018-06-27T11:34:56.250Z,18.73
2018-06-27T11:37:24.476Z,23.13
2018-06-27T11:39:52.877Z,21.37
2018-06-27T11:42:21.387Z,22.47
2018-06-27T11:44:49.814Z,21.37
2018-06-27T11:47:18.489Z,22.30
2018-06-27T11:49:46.701Z,21.67
2018-06-27T11:52:15.226Z,21.93
2018-06-27T11:54:43.770Z,21.63
2018-06-27T11:57:12.130Z,22.37
2018-06-27T11:59:40.557Z,22.10
2018-06-27T12:02:08.905Z,21.57
2018-06-27T12:04:37.381Z,22.37
2018-06-27T12:07:05.763Z,21.57
2018-06-27T12:09:34.154Z,19.00
2018-06-27T12:12:02.756Z,22.23
2018-06-27T12:14:31.341Z,21.43
2018-06-27T12:17:00.046Z,22.30
2018-06-27T12:19:28.442Z,21.37
2018-06-27T12:21:56.965Z,20.27
2018-06-27T12:24:25.529Z,21.97
2018-06-27T12:27:00.342Z,22.97
2018-06-27T12:29:28.902Z,22.40
2018-06-27T12:31:57.221Z,22.97
2018-06-27T12:34:25.710Z,22.37
2018-06-27T12:36:54.047Z,22.03
2018-06-27T12:39:22.574Z,24.30
2018-06-27T12:41:51.293Z,23.70
2018-06-27T12:44:19.891Z,23.07
2018-06-27T12:46:48.313Z,25.43
2018-06-27T12:49:16.804Z,20.57
2018-06-27T12:51:45.463Z,22.53
2018-06-27T12:54:13.890Z,22.43
2018-06-27T12:56:42.341Z,20.90
2018-06-27T12:59:10.874Z,21.20
2018-06-27T13:01:39.318Z,19.47
2018-06-27T13:04:07.893Z,17.83
2018-06-27T13:06:36.516Z,23.03
2018-06-27T13:09:08.085Z,22.67
2018-06-27T13:11:37.137Z,22.10
2018-06-27T13:14:05.839Z,22.70
2018-06-27T13:16:34.400Z,22.00
2018-06-27T13:19:02.934Z,22.27
2018-06-27T13:21:31.360Z,22.43
2018-06-27T13:23:59.789Z,22.53
2018-06-27T13:26:28.266Z,24.13
2018-06-27T13:28:56.809Z,24.10
2018-06-27T13:31:25.608Z,23.53
2018-06-27T13:33:54.257Z,24.60
2018-06-27T13:36:22.609Z,25.90
2018-06-27T13:38:51.173Z,26.03
2018-06-27T13:41:19.410Z,26.40
2018-06-27T13:43:47.917Z,27.23
2018-06-27T13:46:16.201Z,25.57
2018-06-27T13:48:44.709Z,27.80
2018-06-27T13:51:13.043Z,24.20
2018-06-27T13:53:41.434Z,25.53
2018-06-27T13:56:10.087Z,22.40
2018-06-27T13:58:38.373Z,25.80
2018-06-27T14:01:06.869Z,31.63
2018-06-27T14:03:35.377Z,60.93
2018-06-27T14:06:03.833Z,99.70
2018-06-27T14:08:32.355Z,28.37
2018-06-27T14:11:00.825Z,26.30
2018-06-27T14:13:29.164Z,26.77
2018-06-27T14:15:57.555Z,25.57
2018-06-27T14:18:26.074Z,28.40
2018-06-27T14:20:54.497Z,28.00
2018-06-27T14:23:23.238Z,27.57
2018-06-27T14:25:51.713Z,28.10
2018-06-27T14:28:20.005Z,26.93
2018-06-27T14:30:48.017Z,27.90
2018-06-27T14:33:16.239Z,27.10
2018-06-27T14:35:44.677Z,27.13
2018-06-27T14:38:13.221Z,28.20
2018-06-27T14:40:41.637Z,27.40
2018-06-27T14:43:09.935Z,26.27
2018-06-27T14:45:38.447Z,27.57
2018-06-27T14:48:07.024Z,28.03
2018-06-27T14:50:35.467Z,27.47
2018-06-27T14:53:03.990Z,25.97
2018-06-27T14:55:32.442Z,27.90
2018-06-27T14:58:00.801Z,27.60
2018-06-27T15:00:29.443Z,28.97
2018-06-27T15:02:57.890Z,26.43
2018-06-27T15:05:26.113Z,26.93
2018-06-27T15:07:54.360Z,27.67
2018-06-27T15:10:22.914Z,28.13
2018-06-27T15:12:51.294Z,27.27
2018-06-27T15:15:19.605Z,26.57
2018-06-27T15:17:47.950Z,26.57
2018-06-27T15:20:16.328Z,30.77
2018-06-27T15:22:44.621Z,25.93
2018-06-27T15:25:13.228Z,26.17
2018-06-27T15:27:41.576Z,28.17
2018-06-27T15:30:09.784Z,27.30
2018-06-27T15:32:38.052Z,26.37
2018-06-27T15:35:06.505Z,27.27
2018-06-27T15:37:34.915Z,27.03
2018-06-27T15:40:03.354Z,27.07
2018-06-27T15:42:31.533Z,26.20
2018-06-27T15:45:00.062Z,26.60
2018-06-27T15:47:28.295Z,26.30
2018-06-27T15:49:56.866Z,26.80
2018-06-27T15:52:25.365Z,27.20
2018-06-27T15:54:53.431Z,25.27
2018-06-27T15:57:21.739Z,24.17
2018-06-27T15:59:52.884Z,24.73
2018-06-27T16:02:21.636Z,25.77
2018-06-27T16:04:50.033Z,25.33
2018-06-27T16:07:21.193Z,26.10
2018-06-27T16:09:50.462Z,26.00
2018-06-27T16:12:18.738Z,25.27
2018-06-27T16:14:47.253Z,26.07
2018-06-27T16:17:15.928Z,24.57
2018-06-27T16:19:44.101Z,26.07
2018-06-27T16:22:12.673Z,27.37
2018-06-27T16:24:40.846Z,24.37
2018-06-27T16:27:09.259Z,24.20
2018-06-27T16:29:37.782Z,25.77
2018-06-27T16:32:06.127Z,24.20
2018-06-27T16:34:34.548Z,26.20
2018-06-27T16:37:03.057Z,27.50
2018-06-27T16:39:31.539Z,28.27
2018-06-27T16:42:07.677Z,27.57
2018-06-27T16:44:41.450Z,28.13
2018-06-27T16:47:12.704Z,28.33
2018-06-27T16:50:04.886Z,28.13
2018-06-27T16:52:41.564Z,27.70
2018-06-27T16:55:13.136Z,26.87
2018-06-27T16:58:00.532Z,29.23
2018-06-27T17:00:38.100Z,27.20
2018-06-27T17:03:13.812Z,26.80
2018-06-27T17:05:45.394Z,28.80
2018-06-27T17:08:53.247Z,27.83
2018-06-27T17:11:31.837Z,28.67
2018-06-27T17:14:00.541Z,29.37
2018-06-27T17:16:28.841Z,29.27
2018-06-27T17:18:57.493Z,30.93
2018-06-27T17:21:26.210Z,31.20
2018-06-27T17:23:54.917Z,30.73
2018-06-27T17:26:23.744Z,32.57
2018-06-27T17:28:52.418Z,31.30
2018-06-27T17:31:21.054Z,29.70
2018-06-27T17:33:49.887Z,29.97
2018-06-27T17:36:18.491Z,28.20
2018-06-27T17:38:47.915Z,27.67
2018-06-27T17:41:16.364Z,28.17
2018-06-27T17:43:44.812Z,28.53
2018-06-27T17:46:13.381Z,26.40
2018-06-27T17:48:42.100Z,25.47
2018-06-27T17:51:10.669Z,25.27
2018-06-27T17:53:39.174Z,25.30
2018-06-27T17:56:07.868Z,25.80
2018-06-27T17:58:36.513Z,23.40
2018-06-27T18:01:05.054Z,23.97
2018-06-27T18:03:33.726Z,23.43
2018-06-27T18:06:02.373Z,24.87
2018-06-27T18:08:30.487Z,22.30
2018-06-27T18:10:58.987Z,20.50
2018-06-27T18:13:27.490Z,21.83
2018-06-27T18:15:56.697Z,20.70
2018-06-27T18:18:25.310Z,18.53
2018-06-27T18:20:53.683Z,18.87
2018-06-27T18:23:22.278Z,17.73
2018-06-27T18:25:51.010Z,15.40
2018-06-27T18:28:19.618Z,16.67
2018-06-27T18:30:48.214Z,15.90
2018-06-27T18:33:17.625Z,14.60
2018-06-27T18:35:56.353Z,13.27
2018-06-27T18:38:24.892Z,13.90
2018-06-27T18:40:53.483Z,13.20
2018-06-27T18:43:22.299Z,13.80
2018-06-27T18:45:50.931Z,13.10
2018-06-27T18:48:19.465Z,13.27
2018-06-27T18:50:48.335Z,13.43
2018-06-27T18:53:16.863Z,14.13
2018-06-27T18:55:52.161Z,12.53
2018-06-27T18:58:20.597Z,15.87
2018-06-27T19:00:49.272Z,13.60
2018-06-27T19:03:17.595Z,12.83
2018-06-27T19:05:46.347Z,13.37
2018-06-27T19:08:14.523Z,13.67
2018-06-27T19:10:42.502Z,13.60
2018-06-27T19:13:10.595Z,12.17
2018-06-27T19:15:38.615Z,15.03
2018-06-27T19:18:06.677Z,14.23
2018-06-27T19:20:34.881Z,15.10
2018-06-27T19:23:03.222Z,16.87
2018-06-27T19:25:37.983Z,15.17
2018-06-27T19:28:06.415Z,15.87
2018-06-27T19:30:34.463Z,15.60
2018-06-27T19:37:26.763Z,11.10
2018-06-27T19:39:55.146Z,13.70
2018-06-27T19:42:23.102Z,11.90
2018-06-27T19:44:51.161Z,11.07
2018-06-27T19:47:19.463Z,11.00
2018-06-27T19:49:48.975Z,11.73
2018-06-27T19:52:17.283Z,11.37
2018-06-27T19:54:45.606Z,12.67
2018-06-27T19:57:14.117Z,11.27
2018-06-27T19:59:42.457Z,12.83
2018-06-27T20:02:10.705Z,14.23
2018-06-27T20:04:38.663Z,13.97
2018-06-27T20:07:07.218Z,13.93
2018-06-27T20:13:08.492Z,14.57
2018-06-27T20:15:36.938Z,16.47
2018-06-27T20:18:05.438Z,16.60
2018-06-27T20:20:33.810Z,17.17
2018-06-27T20:23:02.177Z,16.50
2018-06-27T20:25:30.762Z,15.37
2018-06-27T20:27:59.237Z,18.27
2018-06-27T20:30:27.420Z,16.33
2018-06-27T20:32:55.786Z,16.57
2018-06-27T20:35:24.174Z,15.47
2018-06-27T20:37:52.762Z,15.77
2018-06-27T20:40:21.140Z,16.43
2018-06-27T20:42:49.504Z,14.93
2018-06-27T20:45:17.811Z,15.87
2018-06-27T20:47:46.272Z,15.63
2018-06-27T20:50:14.990Z,15.27
2018-06-27T20:52:43.354Z,14.10
2018-06-27T20:55:11.788Z,14.97
2018-06-27T20:57:39.955Z,14.33
2018-06-27T21:00:08.525Z,15.17
2018-06-27T21:02:36.934Z,15.43
2018-06-27T21:05:05.457Z,14.83
2018-06-27T21:07:33.998Z,15.30
2018-06-27T21:10:02.127Z,14.73
2018-06-27T21:12:30.546Z,13.97
2018-06-27T21:14:58.818Z,14.97
2018-06-27T21:17:27.054Z,14.27
2018-06-27T21:19:55.369Z,13.97
2018-06-27T21:22:23.751Z,12.87
2018-06-27T21:24:52.061Z,13.23
2018-06-27T21:27:20.507Z,13.20
2018-06-27T21:29:48.778Z,13.60
2018-06-27T21:32:17.193Z,12.80
2018-06-27T21:34:45.743Z,13.60
2018-06-27T21:37:14.122Z,13.83
2018-06-27T21:39:42.397Z,14.00
2018-06-27T21:42:10.378Z,14.70
2018-06-27T21:44:38.890Z,13.67
2018-06-27T21:47:07.222Z,13.03
2018-06-27T21:49:35.596Z,13.73
2018-06-27T21:52:04.077Z,13.93
2018-06-27T21:54:32.491Z,14.10
2018-06-27T21:57:00.933Z,14.53
2018-06-27T21:59:29.042Z,13.53
2018-06-27T22:01:57.495Z,13.13
2018-06-27T22:04:25.861Z,12.43
2018-06-27T22:06:53.975Z,13.30
2018-06-27T22:09:22.319Z,12.27
2018-06-27T22:11:50.500Z,13.47
2018-06-27T22:14:18.903Z,11.97
2018-06-27T22:16:47.256Z,13.27
2018-06-27T22:19:15.621Z,12.40
2018-06-27T22:21:44.177Z,13.17
2018-06-27T22:24:12.382Z,13.63
2018-06-27T22:26:40.547Z,12.97
2018-06-27T22:29:08.726Z,13.97
2018-06-27T22:31:36.668Z,13.20
2018-06-27T22:34:05.078Z,12.57
2018-06-27T22:36:33.460Z,11.80
2018-06-27T22:39:01.631Z,10.70
2018-06-27T22:41:30.103Z,9.57
2018-06-27T22:43:58.284Z,9.50
2018-06-27T22:46:26.863Z,9.10
2018-06-27T22:48:55.163Z,9.80
2018-06-27T22:51:23.623Z,12.50
2018-06-27T22:53:52.089Z,12.33
2018-06-27T22:56:20.433Z,14.77
2018-06-27T22:58:48.864Z,22.33
2018-06-27T23:01:17.222Z,22.93
2018-06-27T23:03:45.511Z,27.40
2018-06-27T23:06:14.114Z,29.27
2018-06-27T23:08:42.463Z,28.80
2018-06-27T23:11:10.438Z,30.70
2018-06-27T23:13:38.854Z,30.93
2018-06-27T23:16:07.293Z,31.50
2018-06-27T23:18:35.735Z,31.00
2018-06-27T23:21:04.139Z,29.77
2018-06-27T23:23:32.630Z,30.33
2018-06-27T23:26:00.893Z,27.23
2018-06-27T23:28:29.177Z,25.90
2018-06-27T23:30:57.446Z,26.13
2018-06-27T23:33:25.860Z,24.33
2018-06-27T23:35:53.894Z,25.63
2018-06-27T23:38:22.166Z,25.47
2018-06-27T23:40:50.555Z,24.43
2018-06-27T23:43:18.488Z,24.90
2018-06-27T23:45:46.750Z,23.83
2018-06-27T23:48:15.114Z,24.90
2018-06-27T23:50:43.693Z,23.50
2018-06-27T23:53:11.947Z,26.30
2018-06-27T23:55:40.371Z,25.13
2018-06-27T23:58:08.614Z,26.23
